sensor_id;sensor_type;location;lat;lon;timestamp;pressure;altitude;pressure_sealevel;temperature
76007;BMP280;64699;0.000;0.000;2023-04-01T00:00:22;98593.09;;;19.25
76007;BMP280;64699;0.000;0.000;2023-04-01T00:02:47;98594.81;;;19.30
76007;BMP280;64699;0.000;0.000;2023-04-01T00:05:13;98583.91;;;19.32
76007;BMP280;64699;0.000;0.000;2023-04-01T00:07:39;98586.69;;;19.32
76007;BMP280;64699;0.000;0.000;2023-04-01T00:10:05;98583.91;;;19.32
76007;BMP280;64699;0.000;0.000;2023-04-01T00:12:30;98578.41;;;19.32
76007;BMP280;64699;0.000;0.000;2023-04-01T00:14:55;98571.50;;;19.31
76007;BMP280;64699;0.000;0.000;2023-04-01T00:17:21;98571.91;;;19.27
76007;BMP280;64699;0.000;0.000;2023-04-01T00:19:46;98572.63;;;19.28
76007;BMP280;64699;0.000;0.000;2023-04-01T00:22:11;98572.06;;;19.29
76007;BMP280;64699;0.000;0.000;2023-04-01T00:24:37;98563.09;;;19.29
76007;BMP280;64699;0.000;0.000;2023-04-01T00:27:02;98563.81;;;19.29
76007;BMP280;64699;0.000;0.000;2023-04-01T00:29:28;98563.22;;;19.31
76007;BMP280;64699;0.000;0.000;2023-04-01T00:31:56;98556.84;;;19.28
76007;BMP280;64699;0.000;0.000;2023-04-01T00:34:21;98564.66;;;19.32
76007;BMP280;64699;0.000;0.000;2023-04-01T00:36:46;98564.38;;;19.28
76007;BMP280;64699;0.000;0.000;2023-04-01T00:39:12;98560.31;;;19.29
76007;BMP280;64699;0.000;0.000;2023-04-01T00:41:37;98557.56;;;19.29
76007;BMP280;64699;0.000;0.000;2023-04-01T00:44:20;98558.75;;;19.26
76007;BMP280;64699;0.000;0.000;2023-04-01T00:46:45;98560.19;;;19.27
76007;BMP280;64699;0.000;0.000;2023-04-01T00:49:11;98551.50;;;19.30
76007;BMP280;64699;0.000;0.000;2023-04-01T00:51:37;98548.75;;;19.30
76007;BMP280;64699;0.000;0.000;2023-04-01T00:54:03;98554.81;;;19.29
76007;BMP280;64699;0.000;0.000;2023-04-01T00:56:33;98564.38;;;19.28
76007;BMP280;64699;0.000;0.000;2023-04-01T00:59:02;98558.75;;;19.26
76007;BMP280;64699;0.000;0.000;2023-04-01T01:01:27;98560.06;;;19.25
76007;BMP280;64699;0.000;0.000;2023-04-01T01:03:54;98556.00;;;19.26
76007;BMP280;64699;0.000;0.000;2023-04-01T01:06:30;98556.72;;;19.26
76007;BMP280;64699;0.000;0.000;2023-04-01T01:11:54;98564.38;;;19.28
76007;BMP280;64699;0.000;0.000;2023-04-01T01:16:44;98559.91;;;19.23
76007;BMP280;64699;0.000;0.000;2023-04-01T01:19:23;98564.69;;;19.22
76007;BMP280;64699;0.000;0.000;2023-04-01T01:22:08;98559.91;;;19.23
76007;BMP280;64699;0.000;0.000;2023-04-01T01:24:44;98561.31;;;19.24
76007;BMP280;64699;0.000;0.000;2023-04-01T01:27:17;98558.00;;;19.25
76007;BMP280;64699;0.000;0.000;2023-04-01T01:29:45;98566.69;;;19.22
76007;BMP280;64699;0.000;0.000;2023-04-01T01:37:31;98561.94;;;19.22
76007;BMP280;64699;0.000;0.000;2023-04-01T01:39:58;98566.69;;;19.22
76007;BMP280;64699;0.000;0.000;2023-04-01T01:42:25;98565.25;;;19.21
76007;BMP280;64699;0.000;0.000;2023-04-01T01:44:51;98564.50;;;19.20
76007;BMP280;64699;0.000;0.000;2023-04-01T01:47:17;98560.91;;;19.18
76007;BMP280;64699;0.000;0.000;2023-04-01T01:49:43;98555.41;;;19.18
76007;BMP280;64699;0.000;0.000;2023-04-01T01:52:10;98555.53;;;19.20
76007;BMP280;64699;0.000;0.000;2023-04-01T01:54:36;98550.47;;;19.17
76007;BMP280;64699;0.000;0.000;2023-04-01T01:57:06;98550.47;;;19.17
76007;BMP280;64699;0.000;0.000;2023-04-01T01:59:32;98546.28;;;19.16
76007;BMP280;64699;0.000;0.000;2023-04-01T02:01:58;98548.47;;;19.17
76007;BMP280;64699;0.000;0.000;2023-04-01T02:04:24;98546.88;;;19.14
76007;BMP280;64699;0.000;0.000;2023-04-01T02:06:56;98552.50;;;19.16
76007;BMP280;64699;0.000;0.000;2023-04-01T02:09:23;98549.75;;;19.16
76007;BMP280;64699;0.000;0.000;2023-04-01T02:11:58;98536.16;;;19.18
76007;BMP280;64699;0.000;0.000;2023-04-01T02:14:47;98529.31;;;19.19
76007;BMP280;64699;0.000;0.000;2023-04-01T02:17:11;98533.69;;;19.22
76007;BMP280;64699;0.000;0.000;2023-04-01T02:19:45;98529.91;;;19.27
76007;BMP280;64699;0.000;0.000;2023-04-01T02:22:13;98526.44;;;19.26
76007;BMP280;64699;0.000;0.000;2023-04-01T02:24:39;98533.22;;;19.25
76007;BMP280;64699;0.000;0.000;2023-04-01T02:27:05;98525.84;;;19.28
76007;BMP280;64699;0.000;0.000;2023-04-01T02:29:30;98524.41;;;19.27
76007;BMP280;64699;0.000;0.000;2023-04-01T02:31:55;98528.59;;;19.28
76007;BMP280;64699;0.000;0.000;2023-04-01T02:34:21;98521.03;;;19.28
76007;BMP280;64699;0.000;0.000;2023-04-01T02:36:48;98528.75;;;19.30
76007;BMP280;64699;0.000;0.000;2023-04-01T02:39:14;98518.47;;;19.30
76007;BMP280;64699;0.000;0.000;2023-04-01T02:41:40;98526.00;;;19.30
76007;BMP280;64699;0.000;0.000;2023-04-01T02:44:06;98527.28;;;19.29
76007;BMP280;64699;0.000;0.000;2023-04-01T02:46:32;98530.19;;;19.31
76007;BMP280;64699;0.000;0.000;2023-04-01T02:48:57;98535.00;;;19.30
76007;BMP280;64699;0.000;0.000;2023-04-01T02:51:22;98533.53;;;19.29
76007;BMP280;64699;0.000;0.000;2023-04-01T02:53:47;98533.53;;;19.29
76007;BMP280;64699;0.000;0.000;2023-04-01T02:56:13;98533.34;;;19.27
76007;BMP280;64699;0.000;0.000;2023-04-01T02:58:38;98534.69;;;19.26
76007;BMP280;64699;0.000;0.000;2023-04-01T03:01:03;98525.09;;;19.27
76007;BMP280;64699;0.000;0.000;2023-04-01T03:03:29;98530.03;;;19.29
76007;BMP280;64699;0.000;0.000;2023-04-01T03:05:54;98531.34;;;19.28
76007;BMP280;64699;0.000;0.000;2023-04-01T03:08:21;98530.59;;;19.27
76007;BMP280;64699;0.000;0.000;2023-04-01T03:10:46;98535.44;;;19.27
76007;BMP280;64699;0.000;0.000;2023-04-01T03:13:12;98537.44;;;19.26
76007;BMP280;64699;0.000;0.000;2023-04-01T03:15:37;98534.25;;;19.30
76007;BMP280;64699;0.000;0.000;2023-04-01T03:18:02;98538.31;;;19.29
76007;BMP280;64699;0.000;0.000;2023-04-01T03:20:28;98542.94;;;19.26
76007;BMP280;64699;0.000;0.000;2023-04-01T03:22:53;98547.75;;;19.26
76007;BMP280;64699;0.000;0.000;2023-04-01T03:25:18;98550.50;;;19.26
76007;BMP280;64699;0.000;0.000;2023-04-01T03:27:44;98554.69;;;19.27
76007;BMP280;64699;0.000;0.000;2023-04-01T03:30:09;98553.97;;;19.26
76007;BMP280;64699;0.000;0.000;2023-04-01T03:32:35;98553.06;;;19.24
76007;BMP280;64699;0.000;0.000;2023-04-01T03:35:00;98563.38;;;19.23
76007;BMP280;64699;0.000;0.000;2023-04-01T03:37:25;98557.84;;;19.23
76007;BMP280;64699;0.000;0.000;2023-04-01T03:39:51;98555.41;;;19.18
76007;BMP280;64699;0.000;0.000;2023-04-01T03:42:16;98566.81;;;19.24
76007;BMP280;64699;0.000;0.000;2023-04-01T03:44:41;98565.41;;;19.23
76007;BMP280;64699;0.000;0.000;2023-04-01T03:47:07;98569.59;;;19.24
76007;BMP280;64699;0.000;0.000;2023-04-01T03:49:34;98574.53;;;19.25
76007;BMP280;64699;0.000;0.000;2023-04-01T03:51:59;98563.50;;;19.25
76007;BMP280;64699;0.000;0.000;2023-04-01T03:54:25;98571.78;;;19.25
76007;BMP280;64699;0.000;0.000;2023-04-01T03:56:50;98572.50;;;19.26
76007;BMP280;64699;0.000;0.000;2023-04-01T03:59:15;98570.47;;;19.26
76007;BMP280;64699;0.000;0.000;2023-04-01T04:01:41;98580.78;;;19.26
76007;BMP280;64699;0.000;0.000;2023-04-01T04:04:06;98580.91;;;19.28
76007;BMP280;64699;0.000;0.000;2023-04-01T04:06:32;98579.59;;;19.29
76007;BMP280;64699;0.000;0.000;2023-04-01T04:08:58;98579.03;;;19.30
76007;BMP280;64699;0.000;0.000;2023-04-01T04:11:23;98575.66;;;19.32
76007;BMP280;64699;0.000;0.000;2023-04-01T04:13:48;98597.69;;;19.32
76007;BMP280;64699;0.000;0.000;2023-04-01T04:16:14;98588.16;;;19.33
76007;BMP280;64699;0.000;0.000;2023-04-01T04:18:40;98599.16;;;19.33
76007;BMP280;64699;0.000;0.000;2023-04-01T04:21:05;98594.53;;;19.35
76007;BMP280;64699;0.000;0.000;2023-04-01T04:23:31;98598.16;;;19.38
76007;BMP280;64699;0.000;0.000;2023-04-01T04:26:05;98600.19;;;19.37
76007;BMP280;64699;0.000;0.000;2023-04-01T04:28:31;98598.16;;;19.38
76007;BMP280;64699;0.000;0.000;2023-04-01T04:30:56;98603.66;;;19.38
76007;BMP280;64699;0.000;0.000;2023-04-01T04:33:22;98608.59;;;19.39
76007;BMP280;64699;0.000;0.000;2023-04-01T04:35:48;98602.66;;;19.43
76007;BMP280;64699;0.000;0.000;2023-04-01T04:38:13;98601.91;;;19.42
76007;BMP280;64699;0.000;0.000;2023-04-01T04:40:39;98606.28;;;19.45
76007;BMP280;64699;0.000;0.000;2023-04-01T04:43:05;98612.50;;;19.46
76007;BMP280;64699;0.000;0.000;2023-04-01T04:45:30;98607.16;;;19.48
76007;BMP280;64699;0.000;0.000;2023-04-01T04:47:56;98611.66;;;19.53
76007;BMP280;64699;0.000;0.000;2023-04-01T04:50:22;98611.50;;;19.51
76007;BMP280;64699;0.000;0.000;2023-04-01T04:52:47;98609.44;;;19.51
76007;BMP280;64699;0.000;0.000;2023-04-01T04:55:12;98610.31;;;19.54
76007;BMP280;64699;0.000;0.000;2023-04-01T04:57:38;98614.25;;;19.51
76007;BMP280;64699;0.000;0.000;2023-04-01T05:00:03;98613.50;;;19.50
76007;BMP280;64699;0.000;0.000;2023-04-01T05:02:28;98611.19;;;19.47
76007;BMP280;64699;0.000;0.000;2023-04-01T05:04:54;98609.91;;;19.48
76007;BMP280;64699;0.000;0.000;2023-04-01T05:07:19;98620.94;;;19.48
76007;BMP280;64699;0.000;0.000;2023-04-01T05:09:44;98608.28;;;19.54
76007;BMP280;64699;0.000;0.000;2023-04-01T05:12:10;98616.44;;;19.52
76007;BMP280;64699;0.000;0.000;2023-04-01T05:14:37;98610.03;;;19.50
76007;BMP280;64699;0.000;0.000;2023-04-01T05:17:03;98613.38;;;19.48
76007;BMP280;64699;0.000;0.000;2023-04-01T05:19:28;98625.09;;;19.49
76007;BMP280;64699;0.000;0.000;2023-04-01T05:21:53;98623.06;;;19.49
76007;BMP280;64699;0.000;0.000;2023-04-01T05:24:19;98605.09;;;19.39
76007;BMP280;64699;0.000;0.000;2023-04-01T05:26:44;98621.63;;;19.48
76007;BMP280;64699;0.000;0.000;2023-04-01T05:29:09;98615.25;;;19.46
76007;BMP280;64699;0.000;0.000;2023-04-01T05:31:35;98620.47;;;19.42
76007;BMP280;64699;0.000;0.000;2023-04-01T05:34:00;98627.44;;;19.43
76007;BMP280;64699;0.000;0.000;2023-04-01T05:36:25;98632.38;;;19.44
76007;BMP280;64699;0.000;0.000;2023-04-01T05:38:50;98621.94;;;19.43
76007;BMP280;64699;0.000;0.000;2023-04-01T05:41:19;98624.69;;;19.43
76007;BMP280;64699;0.000;0.000;2023-04-01T05:43:44;98628.00;;;19.41
76007;BMP280;64699;0.000;0.000;2023-04-01T05:46:10;98634.09;;;19.40
76007;BMP280;64699;0.000;0.000;2023-04-01T05:48:35;98622.50;;;19.41
76007;BMP280;64699;0.000;0.000;2023-04-01T05:51:01;98628.72;;;19.42
76007;BMP280;64699;0.000;0.000;2023-04-01T05:53:26;98623.94;;;19.42
76007;BMP280;64699;0.000;0.000;2023-04-01T05:55:51;98635.13;;;19.44
76007;BMP280;64699;0.000;0.000;2023-04-01T05:58:17;98633.06;;;19.45
76007;BMP280;64699;0.000;0.000;2023-04-01T06:00:45;98631.50;;;19.42
76007;BMP280;64699;0.000;0.000;2023-04-01T06:03:10;98632.38;;;19.44
76007;BMP280;64699;0.000;0.000;2023-04-01T06:05:39;98641.19;;;19.43
76007;BMP280;64699;0.000;0.000;2023-04-01T06:08:05;98636.84;;;19.40
76007;BMP280;64699;0.000;0.000;2023-04-01T06:18:54;98635.38;;;19.39
76007;BMP280;64699;0.000;0.000;2023-04-01T06:26:37;98637.88;;;19.35
76007;BMP280;64699;0.000;0.000;2023-04-01T06:32:10;98630.91;;;19.34
76007;BMP280;64699;0.000;0.000;2023-04-01T06:37:23;98635.53;;;19.31
76007;BMP280;64699;0.000;0.000;2023-04-01T06:50:58;98635.53;;;19.31
76007;BMP280;64699;0.000;0.000;2023-04-01T06:55:46;98633.34;;;19.30
76007;BMP280;64699;0.000;0.000;2023-04-01T07:01:08;98642.16;;;19.28
76007;BMP280;64699;0.000;0.000;2023-04-01T07:06:06;98633.19;;;19.28
76007;BMP280;64699;0.000;0.000;2023-04-01T07:08:36;98631.03;;;19.26
76007;BMP280;64699;0.000;0.000;2023-04-01T07:11:04;98633.06;;;19.26
76007;BMP280;64699;0.000;0.000;2023-04-01T07:13:34;98639.28;;;19.26
76007;BMP280;64699;0.000;0.000;2023-04-01T07:18:46;98639.72;;;19.23
76007;BMP280;64699;0.000;0.000;2023-04-01T07:21:17;98646.66;;;19.24
76007;BMP280;64699;0.000;0.000;2023-04-01T07:23:44;98642.63;;;19.25
76007;BMP280;64699;0.000;0.000;2023-04-01T07:26:20;98641.16;;;19.24
76007;BMP280;64699;0.000;0.000;2023-04-01T07:28:46;98630.75;;;19.22
76007;BMP280;64699;0.000;0.000;2023-04-01T07:36:59;98638.13;;;19.20
76007;BMP280;64699;0.000;0.000;2023-04-01T07:44:47;98643.50;;;19.18
76007;BMP280;64699;0.000;0.000;2023-04-01T07:52:25;98633.78;;;19.17
76007;BMP280;64699;0.000;0.000;2023-04-01T08:03:15;98637.53;;;19.12
76007;BMP280;64699;0.000;0.000;2023-04-01T08:05:50;98645.22;;;19.14
76007;BMP280;64699;0.000;0.000;2023-04-01T08:08:28;98644.63;;;19.15
76007;BMP280;64699;0.000;0.000;2023-04-01T08:11:01;98648.69;;;19.14
76007;BMP280;64699;0.000;0.000;2023-04-01T08:16:17;98648.69;;;19.14
76007;BMP280;64699;0.000;0.000;2023-04-01T08:21:25;98653.47;;;19.14
76007;BMP280;64699;0.000;0.000;2023-04-01T08:23:52;98662.28;;;19.12
76007;BMP280;64699;0.000;0.000;2023-04-01T08:26:36;98664.31;;;19.12
76007;BMP280;64699;0.000;0.000;2023-04-01T08:29:21;98658.81;;;19.12
76007;BMP280;64699;0.000;0.000;2023-04-01T08:32:08;98665.59;;;19.11
76007;BMP280;64699;0.000;0.000;2023-04-01T08:34:40;98662.28;;;19.12
76007;BMP280;64699;0.000;0.000;2023-04-01T08:37:08;98663.75;;;19.13
76007;BMP280;64699;0.000;0.000;2023-04-01T08:42:31;98667.97;;;19.14
76007;BMP280;64699;0.000;0.000;2023-04-01T08:45:10;98668.09;;;19.16
76007;BMP280;64699;0.000;0.000;2023-04-01T08:50:46;98672.44;;;19.19
76007;BMP280;64699;0.000;0.000;2023-04-01T08:55:49;98671.31;;;19.22
76007;BMP280;64699;0.000;0.000;2023-04-01T09:00:44;98678.56;;;19.27
76007;BMP280;64699;0.000;0.000;2023-04-01T09:16:20;98672.19;;;19.34
76007;BMP280;64699;0.000;0.000;2023-04-01T09:37:50;98670.47;;;19.38
76007;BMP280;64699;0.000;0.000;2023-04-01T09:40:18;98676.69;;;19.39
76007;BMP280;64699;0.000;0.000;2023-04-01T09:50:29;98679.16;;;19.35
76007;BMP280;64699;0.000;0.000;2023-04-01T10:22:55;98724.31;;;19.32
76007;BMP280;64699;0.000;0.000;2023-04-01T10:53:33;98725.94;;;19.25
76007;BMP280;64699;0.000;0.000;2023-04-01T11:35:58;98717.81;;;19.18
76007;BMP280;64699;0.000;0.000;2023-04-01T11:46:00;98713.41;;;19.15
76007;BMP280;64699;0.000;0.000;2023-04-01T12:04:38;98729.81;;;19.13
76007;BMP280;64699;0.000;0.000;2023-04-01T12:09:46;98732.56;;;19.13
76007;BMP280;64699;0.000;0.000;2023-04-01T12:20:38;98729.50;;;19.09
76007;BMP280;64699;0.000;0.000;2023-04-01T12:28:10;98733.53;;;19.08
76007;BMP280;64699;0.000;0.000;2023-04-01T12:33:34;98732.09;;;19.07
76007;BMP280;64699;0.000;0.000;2023-04-01T12:55:04;98729.19;;;19.05
76007;BMP280;64699;0.000;0.000;2023-04-01T13:05:44;98739.03;;;19.08
76007;BMP280;64699;0.000;0.000;2023-04-01T13:11:07;98744.31;;;19.14
76007;BMP280;64699;0.000;0.000;2023-04-01T13:13:37;98747.78;;;19.14
76007;BMP280;64699;0.000;0.000;2023-04-01T13:16:08;98747.78;;;19.14
76007;BMP280;64699;0.000;0.000;2023-04-01T13:21:10;98753.41;;;19.16
76007;BMP280;64699;0.000;0.000;2023-04-01T13:29:40;98765.16;;;19.17
76007;BMP280;64699;0.000;0.000;2023-04-01T13:34:39;98759.09;;;19.18
76007;BMP280;64699;0.000;0.000;2023-04-01T13:42:26;98770.66;;;19.17
76007;BMP280;64699;0.000;0.000;2023-04-01T13:45:09;98760.94;;;19.16
76007;BMP280;64699;0.000;0.000;2023-04-01T14:00:16;98766.31;;;19.14
76007;BMP280;64699;0.000;0.000;2023-04-01T14:02:47;98776.28;;;19.09
76007;BMP280;64699;0.000;0.000;2023-04-01T14:05:20;98772.25;;;19.10
76007;BMP280;64699;0.000;0.000;2023-04-01T14:08:02;98767.31;;;19.09
76007;BMP280;64699;0.000;0.000;2023-04-01T14:10:38;98764.00;;;19.10
76007;BMP280;64699;0.000;0.000;2023-04-01T14:16:08;98766.88;;;19.12
76007;BMP280;64699;0.000;0.000;2023-04-01T14:28:40;98774.88;;;19.17
76007;BMP280;64699;0.000;0.000;2023-04-01T14:34:03;98780.09;;;19.23
76007;BMP280;64699;0.000;0.000;2023-04-01T14:47:24;98809.53;;;19.30
76007;BMP280;64699;0.000;0.000;2023-04-01T14:49:54;98798.53;;;19.30
76007;BMP280;64699;0.000;0.000;2023-04-01T14:52:28;98806.25;;;19.31
76007;BMP280;64699;0.000;0.000;2023-04-01T14:54:55;98811.00;;;19.31
76007;BMP280;64699;0.000;0.000;2023-04-01T14:57:25;98811.00;;;19.31
76007;BMP280;64699;0.000;0.000;2023-04-01T14:59:53;98812.28;;;19.30
76007;BMP280;64699;0.000;0.000;2023-04-01T15:02:33;98817.25;;;19.31
76007;BMP280;64699;0.000;0.000;2023-04-01T15:07:58;98820.56;;;19.30
76007;BMP280;64699;0.000;0.000;2023-04-01T15:21:00;98836.34;;;19.29
76007;BMP280;64699;0.000;0.000;2023-04-01T15:23:32;98834.31;;;19.30
76007;BMP280;64699;0.000;0.000;2023-04-01T15:31:16;98853.59;;;19.30
76007;BMP280;64699;0.000;0.000;2023-04-01T15:41:07;98863.16;;;19.29
76007;BMP280;64699;0.000;0.000;2023-04-01T15:43:41;98871.41;;;19.29
76007;BMP280;64699;0.000;0.000;2023-04-01T15:51:21;98884.88;;;19.25
76007;BMP280;64699;0.000;0.000;2023-04-01T15:53:53;98889.66;;;19.24
76007;BMP280;64699;0.000;0.000;2023-04-01T16:04:11;98908.03;;;19.22
76007;BMP280;64699;0.000;0.000;2023-04-01T16:11:51;98919.03;;;19.22
76007;BMP280;64699;0.000;0.000;2023-04-01T16:14:32;98930.06;;;19.22
76007;BMP280;64699;0.000;0.000;2023-04-01T16:17:25;98930.06;;;19.22
76007;BMP280;64699;0.000;0.000;2023-04-01T16:19:51;98939.63;;;19.21
76007;BMP280;64699;0.000;0.000;2023-04-01T16:22:19;98939.63;;;19.21
76007;BMP280;64699;0.000;0.000;2023-04-01T16:27:16;98950.78;;;19.23
76007;BMP280;64699;0.000;0.000;2023-04-01T16:29:55;98946.56;;;19.22
76007;BMP280;64699;0.000;0.000;2023-04-01T16:32:22;98955.00;;;19.07
76007;BMP280;64699;0.000;0.000;2023-04-01T16:37:21;98962.47;;;19.14
76007;BMP280;64699;0.000;0.000;2023-04-01T16:42:40;98978.47;;;19.08
76007;BMP280;64699;0.000;0.000;2023-04-01T16:47:38;98992.88;;;19.16
76007;BMP280;64699;0.000;0.000;2023-04-01T16:50:06;98990.31;;;19.18
76007;BMP280;64699;0.000;0.000;2023-04-01T16:52:48;98995.97;;;19.20
76007;BMP280;64699;0.000;0.000;2023-04-01T16:55:19;99007.13;;;19.22
76007;BMP280;64699;0.000;0.000;2023-04-01T16:57:47;99008.44;;;19.21
76007;BMP280;64699;0.000;0.000;2023-04-01T17:00:16;99009.19;;;19.21
76007;BMP280;64699;0.000;0.000;2023-04-01T17:02:51;99020.75;;;19.20
76007;BMP280;64699;0.000;0.000;2023-04-01T17:05:17;99019.28;;;19.19
76007;BMP280;64699;0.000;0.000;2023-04-01T17:13:17;99043.91;;;19.17
76007;BMP280;64699;0.000;0.000;2023-04-01T17:18:14;99037.25;;;19.20
76007;BMP280;64699;0.000;0.000;2023-04-01T17:28:36;99054.50;;;19.20
76007;BMP280;64699;0.000;0.000;2023-04-01T17:33:38;99063.31;;;19.02
76007;BMP280;64699;0.000;0.000;2023-04-01T17:49:01;99088.09;;;19.02
76007;BMP280;64699;0.000;0.000;2023-04-01T17:51:31;99091.00;;;19.04
76007;BMP280;64699;0.000;0.000;2023-04-01T18:14:45;99129.69;;;19.06
76007;BMP280;64699;0.000;0.000;2023-04-01T18:22:41;99140.56;;;19.04
76007;BMP280;64699;0.000;0.000;2023-04-01T18:27:39;99148.97;;;19.06
76007;BMP280;64699;0.000;0.000;2023-04-01T18:38:11;99164.78;;;19.06
76007;BMP280;64699;0.000;0.000;2023-04-01T18:40:42;99159.97;;;19.06
76007;BMP280;64699;0.000;0.000;2023-04-01T18:43:10;99161.44;;;19.07
76007;BMP280;64699;0.000;0.000;2023-04-01T18:48:32;99171.91;;;19.09
76007;BMP280;64699;0.000;0.000;2023-04-01T18:51:03;99167.28;;;19.11
76007;BMP280;64699;0.000;0.000;2023-04-01T18:53:38;99179.41;;;18.28
76007;BMP280;64699;0.000;0.000;2023-04-01T18:56:09;99187.88;;;17.23
76007;BMP280;64699;0.000;0.000;2023-04-01T19:01:16;99185.63;;;16.69
76007;BMP280;64699;0.000;0.000;2023-04-01T19:06:15;99190.28;;;17.19
76007;BMP280;64699;0.000;0.000;2023-04-01T19:08:42;99188.94;;;16.75
76007;BMP280;64699;0.000;0.000;2023-04-01T19:18:52;99205.66;;;18.14
76007;BMP280;64699;0.000;0.000;2023-04-01T19:29:30;99215.22;;;18.76
76007;BMP280;64699;0.000;0.000;2023-04-01T19:34:31;99219.78;;;18.81
76007;BMP280;64699;0.000;0.000;2023-04-01T19:49:46;99250.94;;;18.84
76007;BMP280;64699;0.000;0.000;2023-04-01T20:05:03;99259.94;;;18.84
76007;BMP280;64699;0.000;0.000;2023-04-01T20:07:37;99259.94;;;18.84
76007;BMP280;64699;0.000;0.000;2023-04-01T20:12:42;99269.66;;;18.85
76007;BMP280;64699;0.000;0.000;2023-04-01T20:15:21;99270.94;;;18.84
76007;BMP280;64699;0.000;0.000;2023-04-01T20:17:47;99275.16;;;18.85
76007;BMP280;64699;0.000;0.000;2023-04-01T20:20:20;99284.16;;;18.86
76007;BMP280;64699;0.000;0.000;2023-04-01T20:25:24;99276.63;;;18.86
76007;BMP280;64699;0.000;0.000;2023-04-01T20:35:37;99307.59;;;18.94
76007;BMP280;64699;0.000;0.000;2023-04-01T20:40:41;99312.75;;;18.90
76007;BMP280;64699;0.000;0.000;2023-04-01T20:53:36;99320.66;;;18.86
76007;BMP280;64699;0.000;0.000;2023-04-01T20:56:20;99319.91;;;18.86
76007;BMP280;64699;0.000;0.000;2023-04-01T21:09:28;99346.53;;;18.83
76007;BMP280;64699;0.000;0.000;2023-04-01T21:12:02;99341.03;;;18.83
76007;BMP280;64699;0.000;0.000;2023-04-01T21:17:08;99347.81;;;18.82
76007;BMP280;64699;0.000;0.000;2023-04-01T21:24:50;99367.09;;;18.82
76007;BMP280;64699;0.000;0.000;2023-04-01T21:29:51;99371.13;;;18.81
76007;BMP280;64699;0.000;0.000;2023-04-01T21:35:05;99376.47;;;18.79
76007;BMP280;64699;0.000;0.000;2023-04-01T21:37:42;99382.66;;;18.80
76007;BMP280;64699;0.000;0.000;2023-04-01T21:50:44;99391.66;;;18.80
76007;BMP280;64699;0.000;0.000;2023-04-01T22:03:39;99405.97;;;18.86
76007;BMP280;64699;0.000;0.000;2023-04-01T22:16:12;99422.63;;;18.96
76007;BMP280;64699;0.000;0.000;2023-04-01T22:18:51;99416.53;;;18.97
76007;BMP280;64699;0.000;0.000;2023-04-01T22:23:56;99420.22;;;19.00
76007;BMP280;64699;0.000;0.000;2023-04-01T22:26:34;99420.38;;;19.02
76007;BMP280;64699;0.000;0.000;2023-04-01T22:29:05;99421.13;;;19.02
76007;BMP280;64699;0.000;0.000;2023-04-01T22:31:53;99426.06;;;19.04
76007;BMP280;64699;0.000;0.000;2023-04-01T22:34:41;99429.03;;;19.06
76007;BMP280;64699;0.000;0.000;2023-04-01T22:37:09;99431.78;;;19.06
76007;BMP280;64699;0.000;0.000;2023-04-01T22:49:43;99440.72;;;19.06
76007;BMP280;64699;0.000;0.000;2023-04-01T22:54:51;99447.69;;;19.07
76007;BMP280;64699;0.000;0.000;2023-04-01T22:59:57;99451.19;;;19.08
76007;BMP280;64699;0.000;0.000;2023-04-01T23:02:24;99453.19;;;19.07
76007;BMP280;64699;0.000;0.000;2023-04-01T23:04:53;99456.53;;;19.06
76007;BMP280;64699;0.000;0.000;2023-04-01T23:09:54;99469.00;;;19.07
76007;BMP280;64699;0.000;0.000;2023-04-01T23:12:20;99471.00;;;19.06
76007;BMP280;64699;0.000;0.000;2023-04-01T23:14:47;99477.81;;;19.05
76007;BMP280;64699;0.000;0.000;2023-04-01T23:24:44;99471.38;;;19.03
76007;BMP280;64699;0.000;0.000;2023-04-01T23:27:36;99479.66;;;19.03
76007;BMP280;64699;0.000;0.000;2023-04-01T23:30:00;99476.34;;;19.04
76007;BMP280;64699;0.000;0.000;2023-04-01T23:32:25;99486.63;;;19.04
76007;BMP280;64699;0.000;0.000;2023-04-01T23:34:58;99484.44;;;19.02
76007;BMP280;64699;0.000;0.000;2023-04-01T23:37:24;99478.91;;;19.02
76007;BMP280;64699;0.000;0.000;2023-04-01T23:39:50;99484.25;;;19.00
76007;BMP280;64699;0.000;0.000;2023-04-01T23:44:48;99488.28;;;18.99
76007;BMP280;64699;0.000;0.000;2023-04-01T23:47:16;99498.00;;;19.00
76007;BMP280;64699;0.000;0.000;2023-04-01T23:49:44;99498.00;;;19.00
76007;BMP280;64699;0.000;0.000;2023-04-01T23:52:20;99502.03;;;18.99
76007;BMP280;64699;0.000;0.000;2023-04-01T23:57:13;99502.59;;;18.98
76007;BMP280;64699;0.000;0.000;2023-04-01T23:59:39;99500.56;;;18.98
